Terminal Aerodrome Forecast
Issued by NWS Charleston, SC

Home | Current Version | Previous Version | Text Only | Print | Product List | Glossary On
Versions: 1 2 3 4 5 6 7 8 9 10 11 12 13 14 15 16 17 18 19 20 21
000
FTUS42 KCHS 010500
TAFSAV
TAF
KSAV 010532Z 0106/0206 27010KT P6SM SKC
     FM010900 28016G25KT P6SM BKN035
     FM011430 30024G34KT P6SM BKN045
     FM012100 32015G22KT P6SM BKN050
     FM020000 32011KT P6SM BKN050=

USA.gov is the U.S. government's official web portal to all federal, state and local government web resources and services.